Time;durP1;ratioP1;P1;durP2;ratioP2;P2;SDS_P1;SDS_P2;PMS_P1;PMS_P2;Temp;Humidity;BMP_temperature;BMP_pressure;BME280_temperature;BME280_humidity;BME280_pressure;Samples;Min_cycle;Max_cycle;Signal;HPM_P1;HPM_P2
2022/04/24 00:01:04;;;;;;;6.27;3.77;;;;;;;8.29;70.61;100962.38;5050058;28;20192;-68
2022/04/24 00:03:29;;;;;;;6.60;3.73;;;;;;;8.28;70.36;100959.75;5051440;28;20185;-67
2022/04/24 00:05:54;;;;;;;5.27;4.33;;;;;;;8.21;71.12;100956.16;5051051;28;20233;-67
2022/04/24 00:08:19;;;;;;;5.13;3.73;;;;;;;8.21;71.66;100956.16;5050918;28;20185;-67
2022/04/24 00:10:45;;;;;;;5.93;3.67;;;;;;;8.18;71.85;100950.06;5049960;28;20200;-68
2022/04/24 00:13:11;;;;;;;5.93;4.20;;;;;;;8.20;71.14;100951.00;5054779;28;20576;-67
2022/04/24 00:15:39;;;;;;;5.10;3.60;;;;;;;8.12;71.52;100952.44;5049669;28;20221;-67
2022/04/24 00:18:05;;;;;;;7.00;3.47;;;;;;;8.10;71.54;100951.50;5053350;28;20185;-67
2022/04/24 00:20:30;;;;;;;6.33;3.80;;;;;;;8.08;72.26;100953.16;5052590;28;20568;-67
2022/04/24 00:22:56;;;;;;;5.73;3.87;;;;;;;8.06;72.46;100955.66;5056439;28;20193;-67
2022/04/24 00:25:21;;;;;;;5.77;4.00;;;;;;;8.01;72.81;100961.47;5053906;28;20563;-68
2022/04/24 00:27:46;;;;;;;6.87;4.50;;;;;;;7.95;73.20;100962.13;5049817;28;20217;-67
2022/04/24 00:30:12;;;;;;;5.77;3.90;;;;;;;7.94;73.16;100960.41;5050657;28;20276;-68
2022/04/24 00:32:37;;;;;;;5.23;3.63;;;;;;;7.87;73.28;100965.25;5052496;28;20185;-68
2022/04/24 00:35:03;;;;;;;6.33;4.17;;;;;;;7.87;73.09;100963.56;5054218;28;20351;-67
2022/04/24 00:37:29;;;;;;;5.37;4.00;;;;;;;7.88;72.96;100961.88;5053594;28;20616;-68
2022/04/24 00:39:55;;;;;;;7.73;4.27;;;;;;;7.86;73.56;100958.41;5052871;28;20662;-67
2022/04/24 00:42:20;;;;;;;6.73;4.50;;;;;;;7.76;74.63;100958.94;5052188;28;20196;-67
2022/04/24 00:44:46;;;;;;;6.83;4.40;;;;;;;7.78;74.17;100955.63;5051552;28;20193;-67
2022/04/24 00:47:17;;;;;;;5.33;4.03;;;;;;;7.74;74.85;100958.88;5050390;28;20225;-67
2022/04/24 00:49:43;;;;;;;7.37;4.20;;;;;;;7.74;73.50;100963.97;5046655;28;20272;-67
2022/04/24 00:52:09;;;;;;;5.57;3.90;;;;;;;7.73;73.51;100958.81;5050425;28;20602;-67
2022/04/24 00:54:35;;;;;;;6.03;3.50;;;;;;;7.77;73.33;100958.09;5050273;28;20276;-67
2022/04/24 00:57:00;;;;;;;6.57;4.47;;;;;;;7.74;74.09;100956.31;5051751;28;20805;-68
2022/04/24 00:59:26;;;;;;;7.73;3.63;;;;;;;7.74;73.46;100955.47;5048682;28;20196;-67
2022/04/24 01:01:51;;;;;;;6.03;3.57;;;;;;;7.77;73.04;100953.00;5056283;28;20272;-67
2022/04/24 01:04:18;;;;;;;5.57;4.23;;;;;;;7.76;73.50;100956.38;5052604;28;20185;-67
2022/04/24 01:06:44;;;;;;;6.03;3.70;;;;;;;7.78;72.66;100959.88;5049064;28;20205;-67
2022/04/24 01:09:17;;;;;;;5.83;3.90;;;;;;;7.78;73.31;100952.22;5050276;28;20201;-69
2022/04/24 01:11:44;;;;;;;4.17;3.67;;;;;;;7.79;73.81;100956.50;5055722;28;20186;-67
2022/04/24 01:14:11;;;;;;;4.70;3.77;;;;;;;7.78;72.73;100958.16;5052907;28;20213;-67
2022/04/24 01:16:36;;;;;;;6.77;3.93;;;;;;;7.81;73.21;100962.50;5050788;28;20204;-67
2022/04/24 01:19:04;;;;;;;8.90;4.20;;;;;;;7.81;73.58;100952.28;5050131;28;20185;-69
2022/04/24 01:21:30;;;;;;;7.53;3.73;;;;;;;7.80;73.61;100958.22;5051082;28;20199;-68
2022/04/24 01:23:55;;;;;;;5.57;3.90;;;;;;;7.77;73.85;100955.56;5050222;28;20577;-67
2022/04/24 01:26:21;;;;;;;4.77;3.70;;;;;;;7.76;73.62;100957.25;5049261;28;20216;-67
2022/04/24 01:28:46;;;;;;;4.20;3.50;;;;;;;7.76;73.78;100954.72;5051319;28;20185;-67
2022/04/24 01:31:11;;;;;;;4.97;3.37;;;;;;;7.76;73.96;100957.25;5052023;28;20196;-67
2022/04/24 01:33:37;;;;;;;4.07;3.27;;;;;;;7.74;73.66;100956.31;5056246;28;20220;-67
2022/04/24 01:36:02;;;;;;;5.27;3.40;;;;;;;7.80;73.41;100950.56;5051560;28;20201;-67
2022/04/24 01:38:31;;;;;;;5.43;4.10;;;;;;;7.75;73.41;100950.44;5051130;28;20607;-67
2022/04/24 01:40:56;;;;;;;5.17;3.63;;;;;;;7.75;73.83;100947.91;5048696;28;20242;-67
2022/04/24 01:43:22;;;;;;;5.03;3.80;;;;;;;7.76;73.46;100949.63;5051416;28;20659;-67
2022/04/24 01:45:47;;;;;;;6.97;3.33;;;;;;;7.75;73.66;100940.25;5047616;28;20805;-67
2022/04/24 01:48:12;;;;;;;4.10;3.07;;;;;;;7.77;73.53;100940.25;5049760;28;20186;-67
2022/04/24 01:50:38;;;;;;;4.47;2.80;;;;;;;7.78;72.83;100937.78;5049935;28;20191;-67
2022/04/24 01:53:03;;;;;;;5.73;3.13;;;;;;;7.80;72.95;100935.28;5052868;28;20872;-67
2022/04/24 01:55:29;;;;;;;4.63;3.33;;;;;;;7.80;73.39;100936.16;5049430;28;20681;-67
2022/04/24 01:57:54;;;;;;;4.73;3.10;;;;;;;7.79;72.85;100938.66;5049572;28;20197;-68
2022/04/24 02:00:20;;;;;;;4.93;3.30;;;;;;;7.81;73.49;100942.97;5049099;28;20182;-67
2022/04/24 02:02:46;;;;;;;6.43;3.57;;;;;;;7.76;73.89;100941.97;5049013;28;20197;-68
2022/04/24 02:05:12;;;;;;;5.27;3.17;;;;;;;7.78;73.63;100940.31;5049413;28;20224;-67
2022/04/24 02:07:37;;;;;;;3.07;2.57;;;;;;;7.81;73.18;100934.44;5048490;28;20186;-69
2022/04/24 02:10:03;;;;;;;5.27;2.97;;;;;;;7.76;73.73;100931.78;5048360;28;20189;-67
2022/04/24 02:12:30;;;;;;;7.20;3.77;;;;;;;7.78;73.17;100932.69;5048292;28;20229;-69
2022/04/24 02:14:55;;;;;;;6.47;3.03;;;;;;;7.76;73.24;100933.44;5045701;28;20220;-69
2022/04/24 02:17:21;;;;;;;6.50;3.50;;;;;;;7.75;73.37;100927.50;5048074;28;20210;-69
2022/04/24 02:19:46;;;;;;;5.40;3.00;;;;;;;7.76;73.37;100924.13;5048798;28;20186;-69
2022/04/24 02:22:11;;;;;;;6.80;3.00;;;;;;;7.77;73.23;100927.53;5049385;28;20560;-69
2022/04/24 02:24:37;;;;;;;6.20;3.60;;;;;;;7.77;72.69;100923.31;5044359;28;20209;-69
2022/04/24 02:27:02;;;;;;;4.73;3.27;;;;;;;7.72;73.09;100924.84;5049685;28;20201;-69
2022/04/24 02:29:28;;;;;;;5.43;3.27;;;;;;;7.72;73.91;100922.28;5051081;28;20655;-69
2022/04/24 02:31:54;;;;;;;5.17;3.07;;;;;;;7.69;74.06;100918.78;5048550;28;20178;-69
2022/04/24 02:34:19;;;;;;;6.63;3.17;;;;;;;7.68;73.63;100924.69;5046170;28;20657;-69
2022/04/24 02:36:44;;;;;;;4.73;3.37;;;;;;;7.71;73.75;100922.25;5052718;28;20231;-70
2022/04/24 02:39:10;;;;;;;4.30;3.10;;;;;;;7.68;73.38;100917.91;5049080;28;20280;-69
2022/04/24 02:41:35;;;;;;;5.33;3.20;;;;;;;7.70;74.35;100920.53;5046825;28;20221;-69
2022/04/24 02:44:01;;;;;;;5.20;3.00;;;;;;;7.67;73.81;100920.41;5050140;28;20231;-69
2022/04/24 02:46:26;;;;;;;9.17;3.90;;;;;;;7.66;74.76;100917.00;5050599;28;20268;-69
2022/04/24 02:48:51;;;;;;;6.03;3.03;;;;;;;7.66;74.62;100921.22;5046494;28;20577;-70
2022/04/24 02:51:17;;;;;;;7.83;3.60;;;;;;;7.60;75.05;100914.25;5048220;28;20251;-69
2022/04/24 02:53:43;;;;;;;5.83;3.50;;;;;;;7.61;74.83;100912.59;5048785;28;20267;-69
2022/04/24 02:56:08;;;;;;;7.63;3.53;;;;;;;7.60;74.67;100910.84;5047813;28;20626;-69
2022/04/24 02:58:33;;;;;;;6.63;3.43;;;;;;;7.60;75.26;100915.94;5053286;28;20193;-70
2022/04/24 03:00:59;;;;;;;4.60;3.30;;;;;;;7.56;75.36;100911.56;5048872;28;20185;-69
2022/04/24 03:03:25;;;;;;;9.07;4.10;;;;;;;7.59;75.44;100909.09;5048671;28;20204;-69
2022/04/24 03:05:51;;;;;;;5.30;3.00;;;;;;;7.60;75.17;100908.31;5051940;28;20204;-69
2022/04/24 03:08:18;;;;;;;4.00;3.27;;;;;;;7.55;75.89;100900.50;5049835;28;20190;-69
2022/04/24 03:10:46;;;;;;;5.00;3.40;;;;;;;7.53;75.59;100897.06;5044930;28;20193;-69
2022/04/24 03:13:12;;;;;;;6.17;3.30;;;;;;;7.53;75.54;100889.41;5061548;28;20221;-69
2022/04/24 03:15:37;;;;;;;6.33;3.47;;;;;;;7.55;75.88;100895.41;5047985;28;20210;-69
2022/04/24 03:18:04;;;;;;;8.07;3.70;;;;;;;7.52;75.44;100894.44;5051079;28;20189;-69
2022/04/24 03:20:30;;;;;;;8.10;3.67;;;;;;;7.50;75.70;100891.84;5048018;28;20714;-69
2022/04/24 03:22:55;;;;;;;5.30;3.23;;;;;;;7.47;75.73;100884.09;5049014;28;20186;-70
2022/04/24 03:25:20;;;;;;;7.53;3.80;;;;;;;7.49;75.67;100884.16;5045465;28;20210;-69
2022/04/24 03:27:46;;;;;;;7.30;3.67;;;;;;;7.43;76.21;100886.50;5045241;28;20192;-69
2022/04/24 03:30:11;;;;;;;8.37;4.20;;;;;;;7.42;76.09;100884.78;5050816;28;20186;-69
2022/04/24 03:32:37;;;;;;;7.17;3.83;;;;;;;7.44;76.62;100884.03;5053396;28;20186;-69
2022/04/24 03:35:04;;;;;;;6.93;3.43;;;;;;;7.44;75.70;100880.59;5052063;28;20247;-70
2022/04/24 03:37:30;;;;;;;7.60;3.70;;;;;;;7.41;76.42;100885.63;5050832;28;20278;-69
2022/04/24 03:39:56;;;;;;;8.37;3.93;;;;;;;7.40;75.91;100876.22;5051696;28;20317;-69
2022/04/24 03:42:21;;;;;;;8.73;3.97;;;;;;;7.40;75.98;100877.09;5051553;28;20185;-69
2022/04/24 03:44:47;;;;;;;6.67;4.07;;;;;;;7.37;76.72;100873.59;5057193;28;20194;-68
2022/04/24 03:47:14;;;;;;;9.40;3.57;;;;;;;7.30;76.65;100864.88;5053120;28;20228;-68
2022/04/24 03:49:40;;;;;;;6.57;3.90;;;;;;;7.28;76.33;100861.41;5052698;28;20198;-68
2022/04/24 03:52:06;;;;;;;4.63;3.43;;;;;;;7.25;76.17;100866.41;5051011;28;20190;-68
2022/04/24 03:54:31;;;;;;;5.73;4.30;;;;;;;7.17;77.15;100861.88;5051348;28;20206;-68
2022/04/24 03:56:56;;;;;;;6.80;4.27;;;;;;;7.12;77.06;100865.94;5050254;28;20292;-68
2022/04/24 03:59:21;;;;;;;7.23;4.20;;;;;;;7.10;77.39;100868.44;5059904;28;20670;-68
2022/04/24 04:01:47;;;;;;;8.00;4.80;;;;;;;7.04;77.52;100868.22;5056479;28;20180;-67
2022/04/24 04:04:12;;;;;;;5.53;4.43;;;;;;;6.98;77.87;100867.16;5050849;28;20174;-68
2022/04/24 04:06:38;;;;;;;5.60;4.00;;;;;;;6.93;77.96;100872.13;5051064;28;20773;-68
2022/04/24 04:09:03;;;;;;;6.77;3.90;;;;;;;6.79;78.75;100872.44;5053916;28;20193;-69
2022/04/24 04:11:28;;;;;;;8.07;4.53;;;;;;;6.66;79.46;100871.16;5048237;28;20186;-68
2022/04/24 04:13:54;;;;;;;8.47;4.20;;;;;;;6.65;79.86;100871.09;5049679;28;20245;-68
2022/04/24 04:16:19;;;;;;;10.73;5.10;;;;;;;6.61;79.66;100874.34;5050288;28;20210;-68
2022/04/24 04:18:45;;;;;;;7.23;4.77;;;;;;;6.58;80.17;100880.19;5054815;28;20195;-68
2022/04/24 04:21:10;;;;;;;9.63;4.87;;;;;;;6.60;79.80;100881.13;5050080;28;20200;-68
2022/04/24 04:23:35;;;;;;;6.13;4.60;;;;;;;6.53;80.20;100873.19;5049839;28;20197;-67
2022/04/24 04:26:00;;;;;;;9.23;4.93;;;;;;;6.55;79.94;100869.94;5049704;28;20210;-68
2022/04/24 04:28:26;;;;;;;7.03;4.70;;;;;;;6.52;80.13;100881.66;5048328;28;20193;-68
2022/04/24 04:30:52;;;;;;;8.10;5.10;;;;;;;6.47;80.12;100876.41;5054307;28;20564;-68
2022/04/24 04:33:17;;;;;;;7.50;4.77;;;;;;;6.41;80.28;100881.25;5066224;28;20197;-68
2022/04/24 04:35:42;;;;;;;9.17;5.50;;;;;;;6.38;80.54;100888.78;5069096;28;20196;-68
2022/04/24 04:38:08;;;;;;;7.97;5.07;;;;;;;6.40;80.36;100881.22;5050634;28;20174;-68
2022/04/24 04:40:33;;;;;;;7.90;4.73;;;;;;;6.43;80.05;100883.84;5050625;28;20182;-68
2022/04/24 04:42:59;;;;;;;7.50;5.43;;;;;;;6.40;80.11;100887.16;5049873;28;20188;-68
2022/04/24 04:45:27;;;;;;;10.40;5.53;;;;;;;6.40;80.40;100892.25;5031520;28;20203;-68
2022/04/24 04:47:52;;;;;;;8.93;5.27;;;;;;;6.39;80.78;100887.09;5029391;28;20183;-68
2022/04/24 04:50:18;;;;;;;8.80;4.90;;;;;;;6.44;80.38;100888.16;5045845;28;20190;-68
2022/04/24 04:52:44;;;;;;;9.27;5.13;;;;;;;6.42;80.39;100890.63;5031082;28;20221;-68
2022/04/24 04:55:09;;;;;;;7.63;4.73;;;;;;;6.48;80.43;100888.31;5030456;28;20682;-68
2022/04/24 04:57:35;;;;;;;9.73;5.90;;;;;;;6.43;80.27;100896.56;5029498;28;20280;-68
2022/04/24 05:00:02;;;;;;;10.93;5.50;;;;;;;6.47;80.55;100904.38;5028923;28;20682;-68
2022/04/24 05:02:27;;;;;;;11.63;5.87;;;;;;;6.50;80.27;100903.63;5030953;28;20656;-68
2022/04/24 05:04:52;;;;;;;10.80;5.57;;;;;;;6.57;79.76;100903.91;5030236;28;20174;-68
2022/04/24 05:07:18;;;;;;;7.63;5.30;;;;;;;6.65;79.98;100906.72;5030574;28;20622;-68
2022/04/24 05:09:43;;;;;;;9.50;5.67;;;;;;;6.66;79.54;100908.44;5030470;28;20636;-68
2022/04/24 05:12:09;;;;;;;13.47;6.23;;;;;;;6.74;79.77;100909.59;5029873;28;20656;-68
2022/04/24 05:14:34;;;;;;;11.27;5.30;;;;;;;6.92;78.77;100910.22;5029046;28;20587;-68
2022/04/24 05:16:59;;;;;;;8.60;5.63;;;;;;;6.99;78.69;100907.06;5035305;28;20201;-68
2022/04/24 05:19:25;;;;;;;7.37;5.13;;;;;;;7.06;78.02;100909.91;5048304;28;20674;-68
2022/04/24 05:21:53;;;;;;;11.50;5.63;;;;;;;7.12;77.79;100912.66;5049451;28;20181;-69
2022/04/24 05:24:19;;;;;;;7.73;5.30;;;;;;;7.22;77.80;100908.72;5049159;28;20785;-68
2022/04/24 05:26:44;;;;;;;8.30;5.53;;;;;;;7.26;77.26;100902.91;5048188;28;20201;-68
2022/04/24 05:29:10;;;;;;;11.37;5.37;;;;;;;7.43;76.81;100899.25;5049946;28;20189;-68
2022/04/24 05:31:35;;;;;;;7.93;5.47;;;;;;;7.51;76.76;100885.94;5050195;28;20621;-68
2022/04/24 05:34:01;;;;;;;10.43;5.50;;;;;;;7.58;76.09;100898.06;5049514;28;20213;-68
2022/04/24 05:36:26;;;;;;;9.27;5.23;;;;;;;7.71;75.36;100899.31;5030268;28;20222;-68
2022/04/24 05:38:51;;;;;;;9.97;5.07;;;;;;;7.74;75.57;100900.25;5045767;28;20193;-68
2022/04/24 05:41:17;;;;;;;8.70;4.83;;;;;;;7.80;75.55;100889.41;5049782;28;20185;-68
2022/04/24 05:43:42;;;;;;;9.73;6.50;;;;;;;7.83;75.17;100894.59;5049534;28;20177;-68
2022/04/24 05:46:07;;;;;;;8.77;5.77;;;;;;;7.91;74.94;100888.91;5049842;28;20239;-69
2022/04/24 05:48:33;;;;;;;7.67;4.87;;;;;;;7.85;75.66;100890.41;5050142;28;20220;-69
2022/04/24 05:50:58;;;;;;;9.37;5.20;;;;;;;8.14;75.25;100892.13;5047990;28;20243;-68
2022/04/24 05:53:23;;;;;;;8.07;5.80;;;;;;;8.17;73.79;100894.78;5048192;28;20240;-67
2022/04/24 05:55:49;;;;;;;8.73;4.70;;;;;;;8.25;73.32;100901.03;5049199;28;20593;-67
2022/04/24 05:58:14;;;;;;;8.73;4.83;;;;;;;8.29;73.89;100897.75;5065046;28;20235;-68
2022/04/24 06:00:40;;;;;;;9.13;4.97;;;;;;;8.38;73.10;100901.41;5049120;28;20987;-69
2022/04/24 06:03:05;;;;;;;9.70;5.47;;;;;;;8.51;72.78;100907.72;5049668;28;20914;-67
2022/04/24 06:05:30;;;;;;;7.47;5.00;;;;;;;8.67;71.73;100897.13;5049446;28;20217;-67
2022/04/24 06:07:56;;;;;;;7.50;5.40;;;;;;;8.73;71.39;100894.75;5049197;28;20192;-67
2022/04/24 06:10:21;;;;;;;9.50;5.00;;;;;;;8.87;71.26;100894.31;5048051;28;20225;-68
2022/04/24 06:12:51;;;;;;;7.83;4.57;;;;;;;8.99;71.05;100892.06;5048721;28;20189;-68
2022/04/24 06:15:21;;;;;;;8.10;4.70;;;;;;;9.12;70.76;100888.16;5049037;28;20225;-68
2022/04/24 06:17:51;;;;;;;5.97;4.80;;;;;;;9.24;70.00;100883.34;5048871;28;20778;-68
2022/04/24 06:20:17;;;;;;;5.77;4.90;;;;;;;9.41;69.35;100888.06;5049534;28;20193;-68
2022/04/24 06:22:46;;;;;;;8.97;5.43;;;;;;;9.51;68.95;100895.13;5046929;28;20186;-67
2022/04/24 06:25:18;;;;;;;7.53;4.90;;;;;;;9.86;68.82;100878.03;5046751;28;20201;-67
2022/04/24 06:27:47;;;;;;;7.47;5.03;;;;;;;10.13;67.28;100876.13;5045534;28;20199;-67
2022/04/24 06:30:14;;;;;;;8.80;4.53;;;;;;;10.28;64.99;100874.72;5048902;28;20259;-67
2022/04/24 06:32:41;;;;;;;6.77;4.83;;;;;;;10.43;65.60;100867.41;5049061;28;20205;-67
2022/04/24 06:35:09;;;;;;;6.13;4.13;;;;;;;10.60;64.44;100866.00;5048637;28;20216;-67
2022/04/24 06:37:37;;;;;;;9.27;4.30;;;;;;;10.69;64.57;100868.75;5047429;28;20304;-68
2022/04/24 06:40:03;;;;;;;9.57;4.80;;;;;;;10.93;63.41;100858.94;5049051;28;20571;-66
2022/04/24 06:42:29;;;;;;;6.10;3.90;;;;;;;11.02;63.38;100873.66;5045867;28;20613;-68
2022/04/24 06:44:56;;;;;;;6.67;4.00;;;;;;;11.02;62.57;100864.25;5037877;28;20227;-67
2022/04/24 06:47:21;;;;;;;6.13;4.10;;;;;;;10.87;62.51;100860.56;5047694;28;20209;-67
2022/04/24 06:49:47;;;;;;;6.73;4.77;;;;;;;10.90;61.92;100866.59;5049429;28;20348;-67
2022/04/24 06:52:12;;;;;;;8.60;4.77;;;;;;;10.87;61.88;100858.84;5047361;28;20213;-67
2022/04/24 06:54:38;;;;;;;5.60;4.27;;;;;;;11.13;62.53;100855.06;5048957;28;20214;-67
2022/04/24 06:57:04;;;;;;;7.30;4.13;;;;;;;11.34;61.58;100849.44;5047066;28;20784;-68
2022/04/24 06:59:29;;;;;;;7.77;4.40;;;;;;;11.32;60.41;100851.97;5045131;28;20285;-67
2022/04/24 07:01:55;;;;;;;7.27;4.47;;;;;;;11.54;60.53;100854.03;5028504;28;20233;-68
2022/04/24 07:04:20;;;;;;;6.67;3.73;;;;;;;11.85;59.45;100848.53;5045101;28;20244;-67
2022/04/24 07:06:45;;;;;;;6.40;3.80;;;;;;;11.84;59.86;100851.09;5031501;28;20210;-67
2022/04/24 07:09:11;;;;;;;6.60;3.97;;;;;;;12.12;58.80;100843.78;5032316;28;20656;-67
2022/04/24 07:11:36;;;;;;;7.33;4.07;;;;;;;12.19;58.52;100848.16;5032576;28;20186;-67
2022/04/24 07:14:02;;;;;;;8.20;4.43;;;;;;;12.10;59.86;100850.59;5032235;28;20745;-67
2022/04/24 07:16:28;;;;;;;5.73;4.47;;;;;;;12.19;59.31;100849.84;5048486;28;20301;-67
2022/04/24 07:18:53;;;;;;;6.30;4.20;;;;;;;12.35;59.36;100850.06;5032261;28;20185;-68
2022/04/24 07:21:19;;;;;;;7.27;4.73;;;;;;;12.58;58.73;100834.94;5040196;28;20209;-67
2022/04/24 07:23:44;;;;;;;6.87;4.30;;;;;;;12.67;58.46;100835.88;5052384;28;20184;-67
2022/04/24 07:26:09;;;;;;;8.57;4.70;;;;;;;12.81;58.92;100831.75;5051857;28;20213;-68
2022/04/24 07:28:36;;;;;;;8.37;4.57;;;;;;;12.78;59.38;100825.72;5051029;28;20615;-68
2022/04/24 07:31:01;;;;;;;8.83;5.27;;;;;;;13.08;57.89;100830.31;5050309;28;20193;-68
2022/04/24 07:33:26;;;;;;;6.60;4.30;;;;;;;13.09;57.91;100827.78;5051498;28;20210;-68
2022/04/24 07:35:52;;;;;;;6.27;4.20;;;;;;;13.33;57.10;100822.84;5051818;28;20608;-68
2022/04/24 07:38:17;;;;;;;7.00;3.97;;;;;;;13.69;56.99;100820.53;5052104;28;20560;-68
2022/04/24 07:40:43;;;;;;;6.23;4.30;;;;;;;13.76;55.61;100819.69;5051891;28;20547;-67
2022/04/24 07:43:10;;;;;;;8.13;4.10;;;;;;;14.08;55.62;100825.03;5052054;28;20949;-67
2022/04/24 07:45:43;;;;;;;6.13;4.20;;;;;;;14.26;56.42;100801.94;5052085;28;20217;-68
2022/04/24 07:48:11;;;;;;;6.30;4.33;;;;;;;14.29;55.98;100813.16;5051606;28;20189;-67
2022/04/24 07:50:39;;;;;;;8.60;4.70;;;;;;;14.27;55.21;100809.69;5047064;28;20206;-68
2022/04/24 07:53:05;;;;;;;7.27;4.07;;;;;;;14.40;55.74;100806.31;5031602;28;20198;-67
2022/04/24 07:55:31;;;;;;;8.07;4.27;;;;;;;14.55;54.05;100810.66;5031890;28;20186;-68
2022/04/24 07:57:57;;;;;;;6.30;4.00;;;;;;;14.78;52.99;100806.41;5031609;28;20813;-68
2022/04/24 08:00:28;;;;;;;4.40;3.60;;;;;;;14.78;53.24;100806.41;5032232;28;20270;-67
2022/04/24 08:02:57;;;;;;;4.23;3.80;;;;;;;15.22;51.94;100815.03;5031772;28;20178;-68
2022/04/24 08:05:26;;;;;;;4.80;3.53;;;;;;;15.20;51.76;100809.88;5031325;28;20183;-68
2022/04/24 08:07:53;;;;;;;4.57;3.43;;;;;;;14.81;52.03;100812.41;5038413;28;20558;-68
2022/04/24 08:10:20;;;;;;;7.40;3.70;;;;;;;15.39;51.00;100805.59;5051016;28;20555;-68
2022/04/24 08:12:46;;;;;;;4.83;3.77;;;;;;;15.54;50.54;100803.00;5051488;28;20240;-69
2022/04/24 08:15:11;;;;;;;5.10;3.27;;;;;;;15.75;50.71;100800.41;5051014;28;20214;-68
2022/04/24 08:17:37;;;;;;;6.07;3.50;;;;;;;15.94;51.19;100802.06;5050521;28;20266;-70
2022/04/24 08:20:04;;;;;;;4.17;3.47;;;;;;;15.78;50.60;100805.53;5050920;28;20264;-69
2022/04/24 08:22:42;;;;;;;7.43;3.53;;;;;;;15.74;49.35;100807.28;5049803;28;20322;-69
2022/04/24 08:25:09;;;;;;;4.63;3.67;;;;;;;15.91;48.71;100810.69;5049221;28;20185;-69
2022/04/24 08:27:35;;;;;;;5.80;3.63;;;;;;;16.56;49.10;100806.13;5048765;28;20198;-69
2022/04/24 08:30:01;;;;;;;5.97;3.47;;;;;;;16.54;50.09;100807.00;5049052;28;20181;-71
2022/04/24 08:32:27;;;;;;;5.67;3.60;;;;;;;16.56;48.89;100800.97;5049255;28;20915;-70
2022/04/24 08:34:52;;;;;;;4.77;3.10;;;;;;;16.98;48.71;100811.03;5050955;28;20213;-69
2022/04/24 08:37:17;;;;;;;3.73;3.27;;;;;;;16.86;47.58;100805.94;5050180;28;20206;-69
2022/04/24 08:39:43;;;;;;;5.13;3.60;;;;;;;17.23;47.27;100797.03;5050759;28;20640;-69
2022/04/24 08:42:09;;;;;;;5.67;3.57;;;;;;;17.13;46.64;100800.56;5050024;28;20224;-69
2022/04/24 08:44:36;;;;;;;7.67;3.70;;;;;;;16.74;47.16;100793.09;5050201;28;20948;-70
2022/04/24 08:47:01;;;;;;;6.67;3.43;;;;;;;16.60;48.24;100802.66;5046873;28;20208;-69
2022/04/24 08:49:31;;;;;;;5.47;3.50;;;;;;;17.24;47.13;100795.31;5047565;28;20643;-69
2022/04/24 08:51:59;;;;;;;4.93;3.50;;;;;;;17.00;47.94;100788.56;5049516;28;20247;-69
2022/04/24 08:54:27;;;;;;;5.43;3.33;;;;;;;17.09;46.70;100800.59;5050904;28;20210;-69
2022/04/24 08:56:52;;;;;;;5.97;3.90;;;;;;;17.11;45.74;100786.78;5050989;28;20201;-70
2022/04/24 08:59:17;;;;;;;4.20;3.10;;;;;;;17.45;45.49;100782.22;5049799;28;20686;-69
2022/04/24 09:01:45;;;;;;;5.53;3.47;;;;;;;17.71;45.50;100781.06;5050522;28;20178;-69
2022/04/24 09:04:10;;;;;;;4.20;2.97;;;;;;;17.79;44.64;100786.16;5049446;28;20244;-70
2022/04/24 09:06:35;;;;;;;6.47;3.17;;;;;;;17.77;44.34;100782.75;5050141;28;20293;-69
2022/04/24 09:09:05;;;;;;;6.10;3.40;;;;;;;17.92;44.11;100783.41;5050652;28;20193;-69
2022/04/24 09:11:31;;;;;;;4.63;3.23;;;;;;;17.87;44.94;100790.38;5050287;28;20201;-70
2022/04/24 09:14:15;;;;;;;5.27;3.30;;;;;;;18.29;44.48;100784.69;5050853;28;20202;-70
2022/04/24 09:16:51;;;;;;;4.23;3.50;;;;;;;18.72;43.57;100778.06;5049455;28;20296;-70
2022/04/24 09:19:20;;;;;;;5.37;3.13;;;;;;;18.81;42.14;100790.03;5050527;28;20558;-70
2022/04/24 09:21:46;;;;;;;7.17;3.50;;;;;;;18.15;42.99;100786.59;5049530;28;20561;-70
2022/04/24 09:24:12;;;;;;;6.27;4.03;;;;;;;17.73;44.42;100788.84;5050139;28;20206;-70
2022/04/24 09:26:48;;;;;;;6.10;3.30;;;;;;;17.54;44.91;100792.50;5050641;28;20228;-70
2022/04/24 09:29:13;;;;;;;8.23;3.77;;;;;;;17.89;44.44;100788.66;5049903;28;20181;-70
2022/04/24 09:31:43;;;;;;;5.07;3.33;;;;;;;18.35;44.03;100784.66;5050294;28;20613;-70
2022/04/24 09:34:09;;;;;;;5.80;3.03;;;;;;;18.08;43.77;100786.69;5047828;28;20304;-70
2022/04/24 09:36:35;;;;;;;4.50;3.53;;;;;;;18.27;43.10;100789.03;5050270;28;20288;-70
2022/04/24 09:39:00;;;;;;;6.20;3.17;;;;;;;19.00;41.85;100788.88;5049728;28;20561;-70
2022/04/24 09:41:25;;;;;;;6.77;3.93;;;;;;;18.93;41.39;100788.13;5049856;28;20190;-71
2022/04/24 09:43:51;;;;;;;4.27;3.07;;;;;;;18.77;41.17;100789.25;5049737;28;20181;-70
2022/04/24 09:46:27;;;;;;;5.77;3.30;;;;;;;18.93;42.48;100789.88;5049714;28;20221;-70
2022/04/24 09:48:53;;;;;;;5.33;3.40;;;;;;;19.78;40.84;100784.94;5049851;28;20596;-71
2022/04/24 09:51:20;;;;;;;5.77;3.27;;;;;;;19.78;40.56;100783.22;5048525;28;20251;-71
2022/04/24 09:53:47;;;;;;;4.73;3.60;;;;;;;19.19;41.12;100787.69;5049712;28;20463;-70
2022/04/24 09:56:14;;;;;;;6.87;3.60;;;;;;;19.41;43.46;100782.16;5049201;28;20214;-70
2022/04/24 09:58:40;;;;;;;8.90;3.60;;;;;;;19.42;41.70;100780.41;5049614;28;20194;-70
2022/04/24 10:01:09;;;;;;;5.80;3.17;;;;;;;19.73;41.06;100779.84;5048990;28;20189;-70
2022/04/24 10:03:37;;;;;;;4.73;3.40;;;;;;;20.16;40.18;100772.94;5049510;28;20209;-70
2022/04/24 10:06:04;;;;;;;4.63;3.33;;;;;;;20.30;39.46;100786.50;5047603;28;20201;-69
2022/04/24 10:08:33;;;;;;;6.13;3.07;;;;;;;19.80;39.87;100793.59;5049190;28;20276;-69
2022/04/24 10:11:03;;;;;;;7.13;3.77;;;;;;;20.39;39.67;100783.72;5049303;28;20588;-69
2022/04/24 10:13:29;;;;;;;5.40;3.27;;;;;;;20.47;40.03;100783.53;5048987;28;20216;-69
2022/04/24 10:16:09;;;;;;;6.17;3.37;;;;;;;19.45;40.20;100791.63;5049269;28;20266;-69
2022/04/24 10:18:40;;;;;;;5.73;3.23;;;;;;;19.83;39.45;100794.38;5049024;28;20178;-70
2022/04/24 10:21:08;;;;;;;5.67;3.27;;;;;;;19.47;40.22;100789.84;5049004;28;20190;-69
2022/04/24 10:23:36;;;;;;;3.77;2.97;;;;;;;19.10;41.52;100793.91;5048107;28;20217;-69
2022/04/24 10:26:03;;;;;;;5.53;3.50;;;;;;;19.03;42.25;100792.28;5048260;28;20209;-69
2022/04/24 10:28:39;;;;;;;4.93;3.30;;;;;;;19.12;42.93;100786.94;5049069;28;20260;-69
2022/04/24 10:31:06;;;;;;;7.40;3.40;;;;;;;19.39;41.33;100785.69;5049293;28;20545;-69
2022/04/24 10:33:33;;;;;;;4.80;3.37;;;;;;;19.42;41.60;100780.41;5049322;28;20355;-69
2022/04/24 10:36:17;;;;;;;5.40;3.30;;;;;;;19.77;40.98;100793.63;5048809;28;20225;-69
2022/04/24 10:38:57;;;;;;;5.10;3.20;;;;;;;19.33;41.51;100783.16;5049499;28;20228;-69
2022/04/24 10:41:29;;;;;;;5.30;3.50;;;;;;;18.63;42.87;100778.22;5041550;28;20286;-69
2022/04/24 10:43:59;;;;;;;7.47;3.83;;;;;;;17.85;43.68;100788.69;5033308;28;20589;-68
2022/04/24 10:46:29;;;;;;;8.00;3.30;;;;;;;17.83;44.80;100775.75;5032703;28;20229;-69
2022/04/24 10:49:16;;;;;;;5.33;3.37;;;;;;;18.95;42.86;100780.31;5032171;28;20549;-69
2022/04/24 10:51:44;;;;;;;6.70;3.80;;;;;;;18.92;42.61;100778.63;5032427;28;20248;-69
2022/04/24 10:54:13;;;;;;;6.13;3.80;;;;;;;19.43;41.05;100776.94;5048530;28;20285;-70
2022/04/24 10:56:41;;;;;;;5.10;3.37;;;;;;;19.70;41.75;100766.91;5032540;28;20218;-69
2022/04/24 10:59:12;;;;;;;5.57;3.97;;;;;;;20.37;40.38;100761.22;5049070;28;20280;-69
2022/04/24 11:01:41;;;;;;;4.57;3.60;;;;;;;20.33;40.44;100757.84;5052635;28;20193;-69
2022/04/24 11:04:08;;;;;;;6.13;3.77;;;;;;;20.80;40.63;100759.34;5050227;28;20178;-69
2022/04/24 11:06:34;;;;;;;5.20;3.67;;;;;;;20.57;38.92;100769.44;5052565;28;20272;-69
2022/04/24 11:09:11;;;;;;;5.20;3.73;;;;;;;19.64;41.69;100774.81;5052125;28;20194;-69
2022/04/24 11:11:52;;;;;;;8.00;4.33;;;;;;;19.82;40.81;100771.00;5052248;28;20188;-68
2022/04/24 11:14:20;;;;;;;5.67;3.80;;;;;;;19.91;41.22;100757.84;5051461;28;20224;-68
2022/04/24 11:16:59;;;;;;;5.57;3.70;;;;;;;20.01;41.80;100751.56;5052533;28;20244;-68
2022/04/24 11:19:27;;;;;;;8.60;3.77;;;;;;;20.56;41.39;100754.72;5050648;28;20679;-68
2022/04/24 11:21:59;;;;;;;5.53;4.10;;;;;;;21.11;40.22;100750.81;5052152;28;20193;-68
2022/04/24 11:24:27;;;;;;;5.77;3.43;;;;;;;21.00;40.43;100752.81;5051986;28;20921;-68
2022/04/24 11:26:54;;;;;;;6.67;3.73;;;;;;;21.58;38.93;100746.97;5052407;28;20217;-69